createdAt,value
2023-05-14T00:00:41.955Z,100893.75
2023-05-14T00:03:10.449Z,100884.75
2023-05-14T00:05:38.532Z,100883.03
2023-05-14T00:08:07.078Z,100876.72
2023-05-14T00:10:35.526Z,100868.94
2023-05-14T00:13:03.607Z,100869.66
2023-05-14T00:15:34.091Z,100876.00
2023-05-14T00:18:04.657Z,100864.41
2023-05-14T00:20:32.879Z,100870.63
2023-05-14T00:23:01.143Z,100867.94
2023-05-14T00:25:29.838Z,100862.59
2023-05-14T00:27:57.930Z,100852.59
2023-05-14T00:30:26.428Z,100865.03
2023-05-14T00:32:55.053Z,100854.31
2023-05-14T00:35:24.871Z,100856.00
2023-05-14T00:37:53.824Z,100857.72
2023-05-14T00:40:26.680Z,100857.72
2023-05-14T00:42:55.177Z,100854.31
2023-05-14T00:45:23.936Z,100854.19
2023-05-14T00:47:52.850Z,100854.06
2023-05-14T00:50:24.725Z,100851.50
2023-05-14T00:52:54.849Z,100854.31
2023-05-14T00:55:23.715Z,100850.66
2023-05-14T00:57:52.221Z,100845.03
2023-05-14T01:00:21.106Z,100846.50
2023-05-14T01:02:49.756Z,100843.56
2023-05-14T01:05:18.512Z,100847.69
2023-05-14T01:07:56.812Z,100847.69
2023-05-14T01:10:33.700Z,100849.44
2023-05-14T01:13:09.585Z,100854.16
2023-05-14T01:15:39.074Z,100843.44
2023-05-14T01:18:09.900Z,100845.03
2023-05-14T01:20:38.648Z,100844.31
2023-05-14T01:23:08.148Z,100841.63
2023-05-14T01:25:36.749Z,100839.78
2023-05-14T01:28:13.118Z,100843.22
2023-05-14T01:30:47.049Z,100838.09
2023-05-14T01:33:18.303Z,100843.44
2023-05-14T01:35:47.126Z,100845.53
2023-05-14T01:38:20.134Z,100842.72
2023-05-14T01:40:50.023Z,100841.59
2023-05-14T01:43:18.438Z,100840.53
2023-05-14T01:45:46.703Z,100839.41
2023-05-14T01:48:15.893Z,100835.75
2023-05-14T01:50:43.969Z,100829.44
2023-05-14T01:53:12.201Z,100827.47
2023-05-14T01:55:42.326Z,100830.00
2023-05-14T01:58:10.937Z,100833.53
2023-05-14T02:00:39.342Z,100828.19
2023-05-14T02:03:07.765Z,100827.97
2023-05-14T02:05:35.869Z,100827.81
2023-05-14T02:08:04.074Z,100823.19
2023-05-14T02:10:33.789Z,100824.16
2023-05-14T02:13:04.456Z,100823.06
2023-05-14T02:15:32.630Z,100817.09
2023-05-14T02:18:00.780Z,100816.13
2023-05-14T02:20:29.274Z,100819.53
2023-05-14T02:22:57.522Z,100809.41
2023-05-14T02:25:25.762Z,100806.13
2023-05-14T02:27:54.264Z,100807.81
2023-05-14T02:30:24.092Z,100806.97
2023-05-14T02:32:52.583Z,100803.44
2023-05-14T02:35:22.936Z,100805.28
2023-05-14T02:37:51.189Z,100797.22
2023-05-14T02:40:19.641Z,100801.75
2023-05-14T02:42:48.055Z,100800.88
2023-05-14T02:45:16.284Z,100807.09
2023-05-14T02:47:46.299Z,100812.47
2023-05-14T02:50:15.191Z,100805.66
2023-05-14T02:52:43.526Z,100809.06
2023-05-14T02:55:11.804Z,100803.78
2023-05-14T02:57:40.344Z,100802.81
2023-05-14T03:00:10.186Z,100801.97
2023-05-14T03:02:38.953Z,100806.25
2023-05-14T03:05:09.907Z,100796.37
2023-05-14T03:07:38.201Z,100802.84
2023-05-14T03:10:07.409Z,100807.50
2023-05-14T03:12:35.863Z,100803.13
2023-05-14T03:15:04.221Z,100803.84
2023-05-14T03:17:32.738Z,100800.16
2023-05-14T03:20:01.037Z,100802.22
2023-05-14T03:22:30.752Z,100800.63
2023-05-14T03:24:58.782Z,100804.06
2023-05-14T03:27:27.189Z,100797.97
2023-05-14T03:29:55.389Z,100797.97
2023-05-14T03:32:23.576Z,100797.50
2023-05-14T03:34:51.946Z,100793.34
2023-05-14T03:37:20.030Z,100787.88
2023-05-14T03:39:49.434Z,100793.97
2023-05-14T03:42:17.863Z,100782.25
2023-05-14T03:44:46.183Z,100780.28
2023-05-14T03:47:14.389Z,100783.69
2023-05-14T03:49:42.794Z,100779.19
2023-05-14T03:52:11.519Z,100780.78
2023-05-14T03:54:41.323Z,100780.53
2023-05-14T03:57:11.067Z,100781.22
2023-05-14T03:59:39.149Z,100781.50
2023-05-14T04:02:07.223Z,100779.19
2023-05-14T04:04:36.067Z,100787.13
2023-05-14T04:07:04.511Z,100772.75
2023-05-14T04:09:32.700Z,100775.28
2023-05-14T04:12:01.077Z,100771.63
2023-05-14T04:14:30.749Z,100782.34
2023-05-14T04:17:00.283Z,100772.94
2023-05-14T04:19:28.846Z,100778.69
2023-05-14T04:21:57.000Z,100778.19
2023-05-14T04:24:25.056Z,100778.19
2023-05-14T04:26:53.442Z,100775.72
2023-05-14T04:29:21.567Z,100781.84
2023-05-14T04:31:51.605Z,100780.72
2023-05-14T04:34:20.057Z,100779.16
2023-05-14T04:36:48.168Z,100776.00
2023-05-14T04:39:16.204Z,100772.59
2023-05-14T04:41:44.452Z,100770.91
2023-05-14T04:44:14.149Z,100777.25
2023-05-14T04:46:42.245Z,100775.16
2023-05-14T04:49:11.746Z,100768.16
2023-05-14T04:51:39.945Z,100766.69
2023-05-14T04:54:08.162Z,100766.41
2023-05-14T04:56:36.656Z,100771.22
2023-05-14T04:59:04.784Z,100773.22
2023-05-14T05:01:33.102Z,100769.31
2023-05-14T05:04:01.514Z,100772.19
2023-05-14T05:06:31.630Z,100777.62
2023-05-14T05:09:01.990Z,100777.47
2023-05-14T05:11:30.789Z,100773.41
2023-05-14T05:13:58.832Z,100776.13
2023-05-14T05:16:27.064Z,100771.25
2023-05-14T05:18:55.599Z,100772.53
2023-05-14T05:21:23.711Z,100770.88
2023-05-14T05:23:53.224Z,100772.06
2023-05-14T05:26:22.114Z,100764.56
2023-05-14T05:28:50.199Z,100763.63
2023-05-14T05:31:19.981Z,100757.88
2023-05-14T05:33:48.833Z,100749.13
2023-05-14T05:36:16.906Z,100752.25
2023-05-14T05:38:44.975Z,100752.41
2023-05-14T05:41:14.667Z,100755.25
2023-05-14T05:43:42.723Z,100755.50
2023-05-14T05:46:10.892Z,100759.06
2023-05-14T05:48:39.338Z,100764.06
2023-05-14T05:51:07.558Z,100759.13
2023-05-14T05:53:35.565Z,100765.09
2023-05-14T05:56:03.834Z,100760.56
2023-05-14T05:58:33.249Z,100751.47
2023-05-14T06:01:01.627Z,100746.34
2023-05-14T06:03:30.034Z,100755.37
2023-05-14T06:05:58.031Z,100747.47
2023-05-14T06:08:26.313Z,100751.00
2023-05-14T06:10:54.686Z,100743.91
2023-05-14T06:13:25.720Z,100750.81
2023-05-14T06:15:55.104Z,100753.03
2023-05-14T06:18:23.313Z,100749.03
2023-05-14T06:20:51.413Z,100760.09
2023-05-14T06:23:19.357Z,100763.31
2023-05-14T06:25:49.446Z,100760.28
2023-05-14T06:28:18.633Z,100761.22
2023-05-14T06:30:46.743Z,100767.09
2023-05-14T06:33:17.371Z,100764.53
2023-05-14T06:35:46.624Z,100767.50
2023-05-14T06:38:14.981Z,100753.44
2023-05-14T06:40:43.084Z,100751.38
2023-05-14T06:43:11.797Z,100748.53
2023-05-14T06:45:51.546Z,100749.78
2023-05-14T06:48:23.023Z,100754.56
2023-05-14T06:50:51.966Z,100745.00
2023-05-14T06:53:20.020Z,100743.00
2023-05-14T06:55:48.731Z,100745.56
2023-05-14T06:58:17.352Z,100752.25
2023-05-14T07:00:45.409Z,100748.47
2023-05-14T07:03:13.440Z,100744.47
2023-05-14T07:05:44.958Z,100752.59
2023-05-14T07:08:13.138Z,100742.25
2023-05-14T07:10:41.656Z,100737.25
2023-05-14T07:13:09.733Z,100736.97
2023-05-14T07:15:37.760Z,100729.47
2023-05-14T07:18:06.369Z,100728.72
2023-05-14T07:20:34.709Z,100726.38
2023-05-14T07:23:04.217Z,100729.63
2023-05-14T07:25:33.324Z,100720.69
2023-05-14T07:28:01.724Z,100720.19
2023-05-14T07:30:29.925Z,100719.00
2023-05-14T07:32:58.442Z,100724.47
2023-05-14T07:35:26.796Z,100721.31
2023-05-14T07:37:55.115Z,100713.72
2023-05-14T07:40:26.067Z,100716.44
2023-05-14T07:42:54.636Z,100719.13
2023-05-14T07:45:24.058Z,100716.41
2023-05-14T07:47:52.961Z,100708.97
2023-05-14T07:50:22.362Z,100710.50
2023-05-14T07:52:50.960Z,100704.25
2023-05-14T07:55:19.753Z,100695.75
2023-05-14T07:57:49.186Z,100693.19
2023-05-14T08:00:18.074Z,100699.59
2023-05-14T08:02:46.760Z,100694.81
2023-05-14T08:05:15.368Z,100691.56
2023-05-14T08:07:43.620Z,100690.72
2023-05-14T08:10:12.390Z,100686.31
2023-05-14T08:12:40.562Z,100693.56
2023-05-14T08:15:11.517Z,100690.19
2023-05-14T08:17:40.047Z,100686.38
2023-05-14T08:20:09.861Z,100683.53
2023-05-14T08:22:38.068Z,100679.69
2023-05-14T08:25:07.843Z,100681.72
2023-05-14T08:27:36.106Z,100678.38
2023-05-14T08:30:04.513Z,100675.25
2023-05-14T08:32:34.325Z,100669.28
2023-05-14T08:35:02.724Z,100675.13
2023-05-14T08:37:30.807Z,100671.16
2023-05-14T08:39:59.348Z,100670.72
2023-05-14T08:42:28.229Z,100661.47
2023-05-14T08:45:01.941Z,100656.94
2023-05-14T08:47:31.930Z,100659.78
2023-05-14T08:50:04.959Z,100657.47
2023-05-14T08:52:34.391Z,100653.78
2023-05-14T08:55:04.906Z,100654.66
2023-05-14T08:57:35.153Z,100652.88
2023-05-14T09:00:06.891Z,100640.53
2023-05-14T09:02:36.601Z,100642.31
2023-05-14T09:05:07.415Z,100650.66
2023-05-14T09:07:36.001Z,100640.97
2023-05-14T09:10:04.882Z,100638.72
2023-05-14T09:12:33.189Z,100632.00
2023-05-14T09:15:01.486Z,100634.59
2023-05-14T09:17:29.810Z,100622.47
2023-05-14T09:19:58.036Z,100630.94
2023-05-14T09:22:31.871Z,100625.41
2023-05-14T09:25:05.506Z,100621.25
2023-05-14T09:27:34.809Z,100618.53
2023-05-14T09:30:07.930Z,100622.41
2023-05-14T09:32:38.167Z,100621.00
2023-05-14T09:35:18.150Z,100613.19
2023-05-14T09:37:54.963Z,100597.81
2023-05-14T09:40:25.112Z,100610.16
2023-05-14T09:42:53.784Z,100611.06
2023-05-14T09:45:25.304Z,100599.66
2023-05-14T09:47:55.306Z,100601.47
2023-05-14T09:50:23.775Z,100599.47
2023-05-14T09:52:56.434Z,100603.00
2023-05-14T09:55:25.028Z,100596.19
2023-05-14T09:57:53.328Z,100583.88
2023-05-14T10:00:22.764Z,100588.97
2023-05-14T10:02:53.472Z,100579.47
2023-05-14T10:05:24.779Z,100580.34
2023-05-14T10:07:55.575Z,100571.09
2023-05-14T10:10:27.752Z,100568.81
2023-05-14T10:12:59.801Z,100569.50
2023-05-14T10:15:33.128Z,100564.47
2023-05-14T10:18:05.354Z,100572.59
2023-05-14T10:20:33.866Z,100558.03
2023-05-14T10:23:03.992Z,100561.50
2023-05-14T10:25:33.910Z,100556.75
2023-05-14T10:28:08.019Z,100550.25
2023-05-14T10:30:36.223Z,100546.75
2023-05-14T10:33:09.379Z,100554.16
2023-05-14T10:36:01.977Z,100555.84
2023-05-14T10:38:34.310Z,100547.91
2023-05-14T10:41:04.448Z,100552.34
2023-05-14T10:43:38.483Z,100549.31
2023-05-14T10:46:08.180Z,100546.69
2023-05-14T10:48:38.672Z,100543.03
2023-05-14T10:51:10.068Z,100541.75
2023-05-14T10:53:41.357Z,100540.75
2023-05-14T10:56:11.009Z,100542.91
2023-05-14T10:58:40.330Z,100531.59
2023-05-14T11:01:10.264Z,100535.06
2023-05-14T11:03:43.821Z,100544.25
2023-05-14T11:06:14.482Z,100535.34
2023-05-14T11:08:46.692Z,100539.09
2023-05-14T11:11:15.491Z,100529.47
2023-05-14T11:13:43.942Z,100530.03
2023-05-14T11:16:22.575Z,100532.75
2023-05-14T11:19:03.526Z,100524.78
2023-05-14T11:21:32.584Z,100521.97
2023-05-14T11:24:03.833Z,100521.41
2023-05-14T11:26:32.938Z,100524.38
2023-05-14T11:29:01.382Z,100513.59
2023-05-14T11:31:29.591Z,100517.91
2023-05-14T11:33:58.050Z,100512.47
2023-05-14T11:36:29.149Z,100515.37
2023-05-14T11:38:57.165Z,100510.16
2023-05-14T11:41:28.105Z,100510.38
2023-05-14T11:43:56.547Z,100507.97
2023-05-14T11:46:25.965Z,100512.31
2023-05-14T11:48:54.073Z,100512.69
2023-05-14T11:51:23.057Z,100510.84
2023-05-14T11:53:51.146Z,100505.69
2023-05-14T11:56:19.281Z,100510.81
2023-05-14T11:58:56.906Z,100507.31
2023-05-14T12:01:25.708Z,100502.91
2023-05-14T12:03:54.439Z,100506.69
2023-05-14T12:06:22.589Z,100500.63
2023-05-14T12:08:50.798Z,100502.50
2023-05-14T12:11:22.096Z,100494.63
2023-05-14T12:13:50.275Z,100487.94
2023-05-14T12:16:21.944Z,100488.25
2023-05-14T12:18:50.139Z,100488.91
2023-05-14T12:21:18.481Z,100487.13
2023-05-14T12:23:47.382Z,100481.31
2023-05-14T12:26:15.662Z,100481.84
2023-05-14T12:28:44.184Z,100483.84
2023-05-14T12:31:13.249Z,100473.88
2023-05-14T12:33:42.944Z,100479.50
2023-05-14T12:36:21.089Z,100474.69
2023-05-14T12:38:50.810Z,100478.94
2023-05-14T12:41:19.357Z,100470.19
2023-05-14T12:43:49.275Z,100464.84
2023-05-14T12:46:17.561Z,100469.28
2023-05-14T12:48:47.373Z,100460.53
2023-05-14T12:51:15.678Z,100460.81
2023-05-14T12:53:43.940Z,100459.16
2023-05-14T12:56:12.872Z,100462.31
2023-05-14T12:58:41.232Z,100458.75
2023-05-14T13:01:09.642Z,100454.56
2023-05-14T13:03:38.116Z,100446.38
2023-05-14T13:06:08.126Z,100441.16
2023-05-14T13:08:36.526Z,100441.97
2023-05-14T13:11:04.996Z,100447.59
2023-05-14T13:13:33.081Z,100438.72
2023-05-14T13:16:01.180Z,100437.63
2023-05-14T13:18:29.625Z,100429.63
2023-05-14T13:20:57.773Z,100431.78
2023-05-14T13:23:27.401Z,100436.31
2023-05-14T13:25:55.823Z,100429.31
2023-05-14T13:28:23.862Z,100428.38
2023-05-14T13:31:06.489Z,100433.41
2023-05-14T13:33:36.941Z,100427.72
2023-05-14T13:36:05.839Z,100429.63
2023-05-14T13:38:35.636Z,100419.28
2023-05-14T13:41:04.083Z,100421.41
2023-05-14T13:43:33.684Z,100425.53
2023-05-14T13:46:06.052Z,100429.69
2023-05-14T13:48:41.178Z,100424.75
2023-05-14T13:51:09.534Z,100426.19
2023-05-14T13:53:39.165Z,100421.81
2023-05-14T13:56:08.661Z,100415.31
2023-05-14T13:58:36.886Z,100416.34
2023-05-14T14:01:05.430Z,100413.44
2023-05-14T14:03:33.788Z,100412.12
2023-05-14T14:06:01.774Z,100413.78
2023-05-14T14:08:31.121Z,100410.44
2023-05-14T14:11:02.067Z,100415.47
2023-05-14T14:13:30.499Z,100407.50
2023-05-14T14:15:58.800Z,100400.56
2023-05-14T14:18:28.279Z,100400.56
2023-05-14T14:20:56.501Z,100402.69
2023-05-14T14:23:24.763Z,100393.66
2023-05-14T14:25:54.345Z,100389.47
2023-05-14T14:28:27.056Z,100391.56
2023-05-14T14:30:55.486Z,100386.13
2023-05-14T14:33:23.539Z,100387.13
2023-05-14T14:35:51.751Z,100382.44
2023-05-14T14:38:20.322Z,100376.75
2023-05-14T14:40:49.705Z,100378.41
2023-05-14T14:43:20.770Z,100371.06
2023-05-14T14:45:50.680Z,100368.34
2023-05-14T14:48:31.391Z,100369.16
2023-05-14T14:51:01.025Z,100368.22
2023-05-14T14:53:29.216Z,100365.03
2023-05-14T14:55:58.111Z,100364.97
2023-05-14T14:58:26.608Z,100348.22
2023-05-14T15:00:57.500Z,100352.13
2023-05-14T15:03:26.355Z,100339.31
2023-05-14T15:05:54.943Z,100341.66
2023-05-14T15:08:31.472Z,100338.56
2023-05-14T15:11:00.371Z,100335.31
2023-05-14T15:13:29.322Z,100334.06
2023-05-14T15:15:58.779Z,100335.56
2023-05-14T15:18:27.311Z,100332.97
2023-05-14T15:20:55.833Z,100328.56
2023-05-14T15:23:24.050Z,100329.38
2023-05-14T15:25:52.418Z,100322.63
2023-05-14T15:28:20.600Z,100319.53
2023-05-14T15:30:48.995Z,100316.09
2023-05-14T15:33:19.700Z,100315.19
2023-05-14T15:35:48.037Z,100307.47
2023-05-14T15:38:16.256Z,100300.53
2023-05-14T15:40:45.130Z,100298.16
2023-05-14T15:43:13.382Z,100298.31
2023-05-14T15:45:41.494Z,100298.09
2023-05-14T15:48:13.368Z,100293.59
2023-05-14T15:50:44.122Z,100293.84
2023-05-14T15:53:12.860Z,100288.00
2023-05-14T15:55:41.003Z,100289.62
2023-05-14T15:58:09.082Z,100293.41
2023-05-14T16:00:37.576Z,100285.13
2023-05-14T16:03:06.345Z,100289.66
2023-05-14T16:05:34.654Z,100286.97
2023-05-14T16:08:04.394Z,100284.41
2023-05-14T16:10:32.859Z,100279.81
2023-05-14T16:13:00.974Z,100276.50
2023-05-14T16:15:29.745Z,100281.09
2023-05-14T16:17:58.195Z,100280.87
2023-05-14T16:20:26.298Z,100277.28
2023-05-14T16:22:54.568Z,100280.97
2023-05-14T16:25:24.481Z,100271.25
2023-05-14T16:27:52.916Z,100273.03
2023-05-14T16:30:21.661Z,100279.06
2023-05-14T16:32:50.387Z,100275.66
2023-05-14T16:35:18.873Z,100274.13
2023-05-14T16:37:47.182Z,100278.47
2023-05-14T16:40:16.474Z,100275.97
2023-05-14T16:42:48.491Z,100278.81
2023-05-14T16:45:18.029Z,100277.97
2023-05-14T16:47:46.352Z,100278.81
2023-05-14T16:50:14.732Z,100278.50
2023-05-14T16:52:43.355Z,100278.47
2023-05-14T16:55:11.555Z,100272.88
2023-05-14T16:57:39.647Z,100271.88
2023-05-14T17:00:10.992Z,100274.09
2023-05-14T17:02:39.474Z,100264.91
2023-05-14T17:05:08.861Z,100265.50
2023-05-14T17:07:38.516Z,100265.41
2023-05-14T17:10:08.028Z,100269.12
2023-05-14T17:12:36.428Z,100264.34
2023-05-14T17:15:05.610Z,100266.84
2023-05-14T17:17:35.468Z,100271.63
2023-05-14T17:20:05.899Z,100275.88
2023-05-14T17:22:34.215Z,100270.87
2023-05-14T17:25:02.509Z,100263.38
2023-05-14T17:27:33.278Z,100262.94
2023-05-14T17:30:01.506Z,100266.41
2023-05-14T17:32:31.580Z,100264.50
2023-05-14T17:35:01.381Z,100265.00
2023-05-14T17:37:30.475Z,100267.47
2023-05-14T17:40:02.382Z,100267.41
2023-05-14T17:42:31.141Z,100271.09
2023-05-14T17:45:00.069Z,100270.34
2023-05-14T17:47:28.518Z,100271.56
2023-05-14T17:49:58.752Z,100274.16
2023-05-14T17:52:29.974Z,100269.19
2023-05-14T17:54:58.890Z,100275.97
2023-05-14T17:57:31.171Z,100271.25
2023-05-14T17:59:59.659Z,100267.06
2023-05-14T18:02:31.971Z,100270.91
2023-05-14T18:05:04.905Z,100271.91
2023-05-14T18:07:36.562Z,100273.84
2023-05-14T18:10:05.634Z,100277.37
2023-05-14T18:12:33.708Z,100273.94
2023-05-14T18:15:01.731Z,100275.03
2023-05-14T18:17:30.405Z,100273.63
2023-05-14T18:20:00.217Z,100281.16
2023-05-14T18:22:28.319Z,100272.84
2023-05-14T18:24:57.993Z,100277.31
2023-05-14T18:27:26.456Z,100279.59
2023-05-14T18:29:54.949Z,100286.97
2023-05-14T18:32:23.543Z,100278.06
2023-05-14T18:34:51.642Z,100275.94
2023-05-14T18:37:20.632Z,100285.38
2023-05-14T18:39:49.218Z,100279.06
2023-05-14T18:42:18.861Z,100278.31
2023-05-14T18:44:46.862Z,100279.38
2023-05-14T18:47:16.234Z,100277.75
2023-05-14T18:49:47.072Z,100274.25
2023-05-14T18:52:15.713Z,100279.19
2023-05-14T18:54:43.958Z,100292.59
2023-05-14T18:57:13.544Z,100288.47
2023-05-14T18:59:43.428Z,100285.47
2023-05-14T19:02:11.742Z,100289.62
2023-05-14T19:04:51.785Z,100285.81
2023-05-14T19:07:21.588Z,100294.59
2023-05-14T19:09:50.303Z,100288.03
2023-05-14T19:12:18.371Z,100297.03
2023-05-14T19:14:47.874Z,100304.53
2023-05-14T19:17:17.769Z,100296.16
2023-05-14T19:19:47.359Z,100299.59
2023-05-14T19:22:15.724Z,100303.97
2023-05-14T19:24:43.904Z,100297.56
2023-05-14T19:27:13.743Z,100301.63
2023-05-14T19:29:42.010Z,100298.44
2023-05-14T19:32:11.911Z,100297.41
2023-05-14T19:34:40.051Z,100299.59
2023-05-14T19:37:08.519Z,100299.72
2023-05-14T19:39:36.632Z,100300.72
2023-05-14T19:42:05.214Z,100290.91
2023-05-14T19:44:33.710Z,100285.38
2023-05-14T19:47:02.048Z,100280.41
2023-05-14T19:49:31.527Z,100278.56
2023-05-14T19:51:59.985Z,100280.22
2023-05-14T19:54:28.075Z,100280.87
2023-05-14T19:56:56.317Z,100272.44
2023-05-14T19:59:24.846Z,100269.88
2023-05-14T20:01:54.518Z,100270.81
2023-05-14T20:04:23.131Z,100267.41
2023-05-14T20:06:52.638Z,100273.25
2023-05-14T20:09:21.201Z,100267.91
2023-05-14T20:11:49.499Z,100264.66
2023-05-14T20:14:17.536Z,100264.75
2023-05-14T20:16:46.991Z,100271.91
2023-05-14T20:19:16.443Z,100265.44
2023-05-14T20:21:45.728Z,100266.06
2023-05-14T20:24:16.339Z,100261.31
2023-05-14T20:26:44.857Z,100267.31
2023-05-14T20:29:14.487Z,100270.63
2023-05-14T20:31:42.701Z,100265.50
2023-05-14T20:34:11.113Z,100268.09
2023-05-14T20:36:39.079Z,100267.34
2023-05-14T20:39:07.555Z,100271.78
2023-05-14T20:41:37.204Z,100267.00
2023-05-14T20:44:05.437Z,100255.19
2023-05-14T20:46:33.521Z,100249.00
2023-05-14T20:49:02.901Z,100252.28
2023-05-14T20:51:32.665Z,100245.81
2023-05-14T20:54:01.042Z,100244.59
2023-05-14T20:56:30.446Z,100238.97
2023-05-14T20:58:59.976Z,100238.16
2023-05-14T21:01:28.442Z,100233.53
2023-05-14T21:04:00.171Z,100228.38
2023-05-14T21:06:28.710Z,100230.25
2023-05-14T21:08:57.089Z,100229.59
2023-05-14T21:11:25.141Z,100237.09
2023-05-14T21:13:53.636Z,100227.44
2023-05-14T21:16:24.067Z,100226.06
2023-05-14T21:18:52.614Z,100222.25
2023-05-14T21:21:20.772Z,100227.41
2023-05-14T21:23:48.970Z,100230.34
2023-05-14T21:26:17.122Z,100220.22
2023-05-14T21:28:45.269Z,100218.78
2023-05-14T21:31:13.760Z,100219.53
2023-05-14T21:33:43.273Z,100215.44
2023-05-14T21:36:11.859Z,100214.03
2023-05-14T21:38:40.457Z,100211.62
2023-05-14T21:41:08.753Z,100219.81
2023-05-14T21:43:36.840Z,100219.13
2023-05-14T21:46:05.400Z,100215.75
2023-05-14T21:48:33.577Z,100215.44
2023-05-14T21:51:03.118Z,100215.44
2023-05-14T21:53:31.394Z,100211.78
2023-05-14T21:55:59.418Z,100210.25
2023-05-14T21:58:28.106Z,100209.69
2023-05-14T22:00:56.422Z,100210.78
2023-05-14T22:03:24.921Z,100211.25
2023-05-14T22:05:53.234Z,100212.78
2023-05-14T22:08:22.803Z,100211.25
2023-05-14T22:10:51.283Z,100209.13
2023-05-14T22:13:19.365Z,100212.09
2023-05-14T22:15:48.317Z,100208.72
2023-05-14T22:18:17.205Z,100201.22
2023-05-14T22:20:45.247Z,100205.19
2023-05-14T22:23:13.280Z,100201.66
2023-05-14T22:25:43.809Z,100202.50
2023-05-14T22:28:11.846Z,100201.53
2023-05-14T22:30:39.997Z,100194.62
2023-05-14T22:33:08.317Z,100194.72
2023-05-14T22:35:36.570Z,100185.41
2023-05-14T22:38:04.636Z,100187.53
2023-05-14T22:40:33.133Z,100182.44
2023-05-14T22:43:02.821Z,100182.44
2023-05-14T22:45:31.722Z,100175.69
2023-05-14T22:48:00.214Z,100189.63
2023-05-14T22:50:28.397Z,100181.44
2023-05-14T22:52:56.383Z,100180.34
2023-05-14T22:55:24.919Z,100180.03
2023-05-14T22:57:53.262Z,100184.53
2023-05-14T23:00:22.809Z,100176.50
2023-05-14T23:02:51.158Z,100182.28
2023-05-14T23:05:19.509Z,100173.69
2023-05-14T23:07:47.577Z,100179.59
2023-05-14T23:10:15.978Z,100180.69
2023-05-14T23:12:44.873Z,100185.44
2023-05-14T23:15:15.851Z,100180.63
2023-05-14T23:17:45.843Z,100182.00
2023-05-14T23:20:14.105Z,100169.00
2023-05-14T23:22:42.302Z,100162.53
2023-05-14T23:25:10.905Z,100163.78
2023-05-14T23:27:38.969Z,100156.03
2023-05-14T23:30:08.181Z,100158.00
2023-05-14T23:32:36.632Z,100161.19
2023-05-14T23:35:06.828Z,100156.25
2023-05-14T23:37:36.848Z,100155.37
2023-05-14T23:40:07.266Z,100144.63
2023-05-14T23:42:35.382Z,100148.53
2023-05-14T23:45:03.606Z,100143.19
2023-05-14T23:47:32.383Z,100145.75
2023-05-14T23:50:00.624Z,100140.12
2023-05-14T23:52:30.079Z,100138.87
2023-05-14T23:54:58.441Z,100140.41
2023-05-14T23:57:27.251Z,100134.63
2023-05-14T23:59:55.417Z,100125.03
